Time;durP1;ratioP1;P1;durP2;ratioP2;P2;SDS_P1;SDS_P2;PMS_P1;PMS_P2;Temp;Humidity;BMP_temperature;BMP_pressure;BME280_temperature;BME280_humidity;BME280_pressure;Samples;Min_cycle;Max_cycle;Signal;HPM_P1;HPM_P2
2022/08/12 00:44:19;;;;;;;4.43;3.83;;;18.80;99.90;;;;;;4859398;29;20121;-66
2022/08/12 00:46:50;;;;;;;5.60;4.05;;;18.70;99.90;;;;;;4862537;29;20064;-66
2022/08/12 00:49:16;;;;;;;5.43;3.75;;;18.70;99.90;;;;;;4861620;29;20067;-67
2022/08/12 00:54:28;;;;;;;6.22;3.53;;;18.60;99.90;;;;;;4860731;29;20487;-67
2022/08/12 00:56:56;;;;;;;5.05;3.80;;;18.60;99.90;;;;;;4862856;29;20049;-67
2022/08/12 00:59:22;;;;;;;4.95;3.53;;;18.50;99.90;;;;;;4859606;29;20068;-67
2022/08/12 01:01:51;;;;;;;4.20;3.80;;;18.50;99.90;;;;;;4860607;29;20042;-67
2022/08/12 01:12:45;;;;;;;4.63;4.10;;;18.40;99.90;;;;;;4860571;29;20440;-66
2022/08/12 01:15:12;;;;;;;6.45;4.78;;;18.30;99.90;;;;;;4862064;29;20110;-68
2022/08/12 01:17:42;;;;;;;4.60;4.20;;;18.30;99.90;;;;;;4860053;29;20045;-68
2022/08/12 01:20:18;;;;;;;4.60;4.05;;;18.30;99.90;;;;;;4860543;29;20129;-68
2022/08/12 01:22:58;;;;;;;4.63;4.22;;;18.20;99.90;;;;;;4860371;29;20046;-68
2022/08/12 01:25:28;;;;;;;5.65;4.40;;;18.20;99.90;;;;;;4874040;29;20089;-68
2022/08/12 01:27:57;;;;;;;4.72;4.22;;;18.20;99.90;;;;;;4863701;29;20462;-68
2022/08/12 01:30:25;;;;;;;5.72;4.28;;;18.10;99.90;;;;;;4879921;29;20363;-68
2022/08/12 01:32:54;;;;;;;5.28;4.78;;;18.10;99.90;;;;;;4863163;29;20048;-68
2022/08/12 01:35:22;;;;;;;5.93;4.13;;;18.10;99.90;;;;;;4879779;29;20049;-68
2022/08/12 01:37:57;;;;;;;4.50;4.10;;;18.10;99.90;;;;;;4861997;29;20049;-68
2022/08/12 01:40:31;;;;;;;4.65;4.28;;;18.00;99.90;;;;;;4862884;29;20052;-68
2022/08/12 01:43:04;;;;;;;6.38;4.70;;;18.00;99.90;;;;;;4868714;29;20403;-68
2022/08/12 01:45:31;;;;;;;4.22;3.90;;;18.00;99.90;;;;;;4879415;29;20052;-68
2022/08/12 01:48:24;;;;;;;6.32;4.22;;;17.90;99.90;;;;;;4880070;29;20044;-68
2022/08/12 01:51:08;;;;;;;5.70;4.55;;;17.90;99.90;;;;;;4855298;29;20128;-68
2022/08/12 01:53:58;;;;;;;5.53;4.68;;;17.90;99.90;;;;;;4880229;29;20049;-68
2022/08/12 01:56:28;;;;;;;6.20;4.45;;;17.90;99.90;;;;;;4880069;29;20080;-68
2022/08/12 01:59:58;;;;;;;6.65;4.30;;;17.90;99.90;;;;;;4860255;29;20123;-68
2022/08/12 02:01:55;;;;;;;5.68;4.30;;;17.80;99.90;;;;;;4869848;29;20052;-68
2022/08/12 02:13:51;;;;;;;6.63;4.68;;;17.80;99.90;;;;;;4879730;29;20061;-68
2022/08/12 02:16:35;;;;;;;5.82;5.28;;;17.80;99.90;;;;;;4879294;29;20140;-68
2022/08/12 02:19:36;;;;;;;5.40;4.90;;;17.70;99.90;;;;;;4878538;29;20095;-68
2022/08/12 02:22:27;;;;;;;6.72;5.18;;;17.80;99.90;;;;;;4862198;29;20109;-68
2022/08/12 02:25:22;;;;;;;7.50;4.90;;;17.80;99.90;;;;;;4841853;29;20058;-68
2022/08/12 02:30:44;;;;;;;5.18;4.68;;;17.70;99.90;;;;;;4804042;29;20065;-68
2022/08/12 02:33:11;;;;;;;5.28;4.72;;;17.70;99.90;;;;;;4849781;29;20061;-68
2022/08/12 02:35:39;;;;;;;6.68;4.97;;;17.90;99.90;;;;;;4859195;29;20053;-68
2022/08/12 02:38:07;;;;;;;5.72;5.00;;;17.60;99.90;;;;;;4858950;29;20054;-68
2022/08/12 02:40:41;;;;;;;7.13;5.32;;;17.60;99.90;;;;;;4852498;29;20050;-68
2022/08/12 02:43:39;;;;;;;5.90;5.22;;;17.60;99.90;;;;;;4861118;29;20117;-68
2022/08/12 02:46:09;;;;;;;11.50;6.22;;;17.60;99.90;;;;;;4842679;29;20045;-68
2022/08/12 02:48:47;;;;;;;10.77;4.78;;;17.50;99.90;;;;;;4869977;29;20128;-68
2022/08/12 02:51:23;;;;;;;5.63;4.95;;;17.50;99.90;;;;;;4858230;29;20061;-68
2022/08/12 02:53:50;;;;;;;5.30;4.80;;;17.50;99.90;;;;;;4858864;29;20072;-68
2022/08/12 02:56:17;;;;;;;5.72;5.10;;;17.40;99.90;;;;;;4858570;29;20049;-68
2022/08/12 02:58:45;;;;;;;6.00;5.40;;;17.40;99.90;;;;;;4855961;29;20128;-68
2022/08/12 03:01:12;;;;;;;6.10;5.50;;;17.50;99.90;;;;;;4860087;29;20364;-68
2022/08/12 03:03:39;;;;;;;5.60;5.03;;;17.30;99.90;;;;;;4858920;29;20052;-68
2022/08/12 03:06:17;;;;;;;6.32;5.65;;;17.30;99.90;;;;;;4859338;29;20045;-68
2022/08/12 03:08:45;;;;;;;6.82;5.07;;;17.30;99.90;;;;;;4858612;29;20378;-68
2022/08/12 03:11:35;;;;;;;6.22;5.63;;;17.20;99.90;;;;;;4858720;29;20092;-68
2022/08/12 03:14:02;;;;;;;5.80;5.18;;;17.20;99.90;;;;;;4850697;29;20046;-68
2022/08/12 03:16:31;;;;;;;7.35;5.18;;;17.20;99.90;;;;;;4860790;29;20060;-68
2022/08/12 03:18:57;;;;;;;6.03;5.35;;;17.20;99.90;;;;;;4858175;29;20053;-69
2022/08/12 03:21:24;;;;;;;7.03;5.25;;;17.20;99.90;;;;;;4843175;29;20046;-68
2022/08/12 03:23:54;;;;;;;6.75;5.60;;;17.10;99.90;;;;;;4857005;29;20498;-68
2022/08/12 03:26:24;;;;;;;6.78;5.60;;;17.10;99.90;;;;;;4857741;29;20085;-68
2022/08/12 03:28:55;;;;;;;5.57;5.07;;;17.10;99.90;;;;;;4858781;29;20475;-68
2022/08/12 03:31:29;;;;;;;8.75;5.72;;;17.10;99.90;;;;;;4860516;29;20042;-68
2022/08/12 03:34:22;;;;;;;8.18;5.43;;;17.10;99.90;;;;;;4856625;29;20136;-68
2022/08/12 03:36:48;;;;;;;6.60;5.80;;;17.10;99.90;;;;;;4857465;29;20084;-68
2022/08/12 03:41:57;;;;;;;6.22;5.60;;;17.00;99.90;;;;;;4859282;29;20105;-68
2022/08/12 04:01:24;;;;;;;7.32;6.13;;;16.90;99.90;;;;;;4862858;29;20118;-67
2022/08/12 04:03:53;;;;;;;8.27;5.65;;;16.80;99.90;;;;;;4858906;29;20124;-67
2022/08/12 04:06:25;;;;;;;8.00;5.80;;;16.80;99.90;;;;;;4857496;29;20065;-67
2022/08/12 04:08:55;;;;;;;6.07;5.55;;;16.80;99.90;;;;;;4854411;29;20096;-67
2022/08/12 04:14:16;;;;;;;9.05;6.05;;;16.80;99.90;;;;;;4872028;29;20049;-67
2022/08/12 04:16:42;;;;;;;6.90;6.03;;;16.80;99.90;;;;;;4858132;29;20105;-67
2022/08/12 04:19:08;;;;;;;6.25;5.53;;;16.80;99.90;;;;;;4858388;29;20085;-67
2022/08/12 04:21:36;;;;;;;8.00;5.70;;;16.80;99.90;;;;;;4858980;29;20081;-67
2022/08/12 04:24:04;;;;;;;6.50;5.80;;;16.70;99.90;;;;;;4855651;29;20057;-67
2022/08/12 04:26:29;;;;;;;6.65;5.63;;;16.80;99.90;;;;;;4859111;29;20061;-67
2022/08/12 04:28:55;;;;;;;6.40;5.80;;;16.80;99.90;;;;;;4856287;29;20468;-67
2022/08/12 04:31:35;;;;;;;6.97;6.10;;;16.70;99.90;;;;;;4860280;29;20063;-67
2022/08/12 04:34:02;;;;;;;10.45;5.95;;;16.80;99.90;;;;;;4847583;29;20053;-67
2022/08/12 04:36:29;;;;;;;6.60;5.97;;;16.80;99.90;;;;;;4857017;29;20046;-67
2022/08/12 04:39:04;;;;;;;7.50;6.28;;;16.70;99.90;;;;;;4857161;29;20091;-67
2022/08/12 04:41:31;;;;;;;8.20;6.00;;;16.70;99.90;;;;;;4859831;29;20054;-67
2022/08/12 04:44:03;;;;;;;11.48;5.70;;;16.70;99.90;;;;;;4860702;29;20550;-68
2022/08/12 04:46:29;;;;;;;7.88;5.88;;;16.80;99.90;;;;;;4861366;29;20917;-67
2022/08/12 04:48:55;;;;;;;7.97;6.00;;;16.70;99.90;;;;;;4861995;29;20053;-67
2022/08/12 04:51:21;;;;;;;6.40;5.80;;;16.80;99.90;;;;;;4859757;29;20081;-68
2022/08/12 04:53:47;;;;;;;7.80;5.85;;;16.80;99.90;;;;;;4861203;29;20128;-68
2022/08/12 04:56:17;;;;;;;6.60;6.00;;;16.80;99.90;;;;;;4860695;29;20069;-67
2022/08/12 04:58:43;;;;;;;7.30;6.25;;;16.80;99.90;;;;;;4860389;29;20503;-68
2022/08/12 05:01:09;;;;;;;6.93;6.22;;;16.80;99.90;;;;;;4843356;29;20080;-67
2022/08/12 05:03:36;;;;;;;7.05;5.70;;;16.80;99.90;;;;;;4863091;29;20052;-68
2022/08/12 05:06:03;;;;;;;6.55;5.65;;;16.80;99.90;;;;;;4858197;29;20114;-67
2022/08/12 05:08:29;;;;;;;7.70;5.45;;;16.80;99.90;;;;;;4863876;29;20049;-68
2022/08/12 05:10:56;;;;;;;6.57;5.57;;;16.90;99.90;;;;;;4860222;29;20050;-67
2022/08/12 05:13:28;;;;;;;7.93;5.15;;;16.90;99.90;;;;;;4856980;29;20169;-67
2022/08/12 05:15:55;;;;;;;6.25;5.65;;;16.90;99.90;;;;;;4869730;29;20379;-67
2022/08/12 05:18:21;;;;;;;6.70;5.45;;;17.00;99.90;;;;;;4848737;29;20451;-68
2022/08/12 05:20:48;;;;;;;8.85;5.13;;;17.00;99.90;;;;;;4861256;29;20045;-67
2022/08/12 05:23:18;;;;;;;9.05;5.47;;;17.00;99.90;;;;;;4870913;29;20077;-68
2022/08/12 05:25:47;;;;;;;5.88;5.03;;;17.10;99.90;;;;;;4871389;29;20107;-67
2022/08/12 05:28:15;;;;;;;5.93;5.22;;;17.10;99.90;;;;;;4879006;29;20060;-68
2022/08/12 05:30:44;;;;;;;6.63;5.22;;;17.20;99.90;;;;;;4877699;29;20061;-68
2022/08/12 05:36:07;;;;;;;5.43;4.93;;;17.20;99.90;;;;;;4871247;29;20037;-67
2022/08/12 05:41:44;;;;;;;6.30;5.30;;;17.50;99.90;;;;;;4880869;29;20045;-68
2022/08/12 05:44:15;;;;;;;5.32;4.82;;;17.70;99.90;;;;;;4871757;29;20047;-67
2022/08/12 05:46:44;;;;;;;5.60;4.90;;;17.70;99.90;;;;;;4861016;29;20049;-67
2022/08/12 05:49:10;;;;;;;10.40;5.50;;;17.80;99.90;;;;;;4875391;29;20052;-68
2022/08/12 05:51:37;;;;;;;6.70;4.90;;;17.80;99.90;;;;;;4875631;29;20530;-67
2022/08/12 05:54:03;;;;;;;5.28;4.75;;;18.20;99.90;;;;;;4877052;29;20049;-67
2022/08/12 05:56:34;;;;;;;7.75;4.88;;;19.30;99.90;;;;;;4875718;29;20116;-68
2022/08/12 05:59:05;;;;;;;8.23;4.88;;;20.40;99.90;;;;;;4879203;29;20093;-67
2022/08/12 06:01:31;;;;;;;6.83;4.93;;;21.40;99.90;;;;;;4878559;29;20123;-68
2022/08/12 06:03:56;;;;;;;7.15;4.57;;;22.20;99.90;;;;;;4879154;29;20136;-68
2022/08/12 06:06:23;;;;;;;5.78;4.00;;;22.80;99.90;;;;;;4880494;29;20475;-70
2022/08/12 06:08:52;;;;;;;5.38;4.78;;;23.30;99.90;;;;;;4879216;29;20053;-70
2022/08/12 06:11:23;;;;;;;4.20;3.80;;;23.70;99.90;;;;;;4863484;29;20087;-70
2022/08/12 06:13:50;;;;;;;6.78;4.07;;;23.80;99.90;;;;;;4863868;29;20111;-70
2022/08/12 06:16:18;;;;;;;5.07;3.72;;;24.00;99.90;;;;;;4879958;29;20057;-70
2022/08/12 06:18:44;;;;;;;4.38;3.90;;;23.90;99.90;;;;;;4880711;29;20049;-70
2022/08/12 06:21:13;;;;;;;6.00;3.70;;;23.30;99.90;;;;;;4877805;29;20120;-70
2022/08/12 06:23:39;;;;;;;7.45;4.20;;;22.50;99.90;;;;;;4861933;29;20538;-70
2022/08/12 06:26:10;;;;;;;4.97;3.80;;;21.90;99.90;;;;;;4859777;29;20122;-70
2022/08/12 06:28:39;;;;;;;4.40;3.78;;;21.40;99.90;;;;;;4875322;29;20115;-70
2022/08/12 06:31:07;;;;;;;5.35;4.03;;;21.10;99.90;;;;;;4879712;29;20056;-68
2022/08/12 06:33:34;;;;;;;4.85;3.88;;;20.90;99.90;;;;;;4863433;29;20076;-70
2022/08/12 06:36:00;;;;;;;7.90;4.30;;;20.80;99.90;;;;;;4862503;29;20061;-69
2022/08/12 06:38:29;;;;;;;5.38;3.60;;;20.70;99.90;;;;;;4878866;29;20109;-69
2022/08/12 06:43:43;;;;;;;5.45;3.75;;;20.60;99.90;;;;;;4879943;29;20394;-69
2022/08/12 06:46:10;;;;;;;4.30;3.88;;;20.60;99.90;;;;;;4865886;29;20181;-68
2022/08/12 06:48:36;;;;;;;6.10;4.07;;;20.60;99.90;;;;;;4879254;29;20463;-68
2022/08/12 06:51:02;;;;;;;7.07;3.95;;;20.50;99.90;;;;;;4862823;29;20099;-69
2022/08/12 06:53:31;;;;;;;4.07;3.72;;;20.60;99.90;;;;;;4879915;29;20057;-69
2022/08/12 06:55:59;;;;;;;4.55;3.75;;;20.60;99.90;;;;;;4862631;29;20053;-69
2022/08/12 06:58:26;;;;;;;5.05;3.95;;;20.70;99.90;;;;;;4879468;29;20060;-69
2022/08/12 07:00:52;;;;;;;4.50;4.10;;;20.80;99.90;;;;;;4863108;29;20056;-69
2022/08/12 07:03:26;;;;;;;6.88;3.55;;;20.90;99.90;;;;;;4862477;29;20053;-68
2022/08/12 07:05:54;;;;;;;4.15;3.75;;;21.00;99.90;;;;;;4879017;29;20064;-69
2022/08/12 07:08:20;;;;;;;4.72;3.97;;;21.10;99.90;;;;;;4879424;29;20117;-69
2022/08/12 07:10:52;;;;;;;9.70;4.35;;;21.30;99.90;;;;;;4862625;29;20482;-69
2022/08/12 07:13:19;;;;;;;4.85;3.72;;;21.40;99.90;;;;;;4879434;29;20101;-68
2022/08/12 07:15:45;;;;;;;5.10;3.75;;;21.50;99.90;;;;;;4879390;29;20056;-67
2022/08/12 07:18:16;;;;;;;3.95;3.53;;;21.60;99.90;;;;;;4863229;29;20444;-68
2022/08/12 07:20:43;;;;;;;6.85;4.22;;;21.80;99.90;;;;;;4879172;29;20045;-68
2022/08/12 07:23:10;;;;;;;4.78;3.42;;;21.90;99.90;;;;;;4862636;29;20060;-68
2022/08/12 07:25:38;;;;;;;4.60;3.95;;;22.10;99.90;;;;;;4862644;29;20053;-67
2022/08/12 07:28:04;;;;;;;5.45;3.90;;;22.20;99.90;;;;;;4879240;29;20053;-67
2022/08/12 07:30:35;;;;;;;4.50;3.38;;;22.30;99.90;;;;;;4862943;29;20120;-68
2022/08/12 07:33:03;;;;;;;4.03;3.47;;;22.40;99.90;;;;;;4862335;29;20630;-68
2022/08/12 07:35:31;;;;;;;6.25;3.60;;;22.50;99.90;;;;;;4879406;29;20056;-68
2022/08/12 07:37:59;;;;;;;6.03;3.90;;;22.60;99.90;;;;;;4878800;29;20379;-68
2022/08/12 07:40:25;;;;;;;4.78;3.58;;;22.70;99.90;;;;;;4879731;29;20049;-69
2022/08/12 07:42:51;;;;;;;6.10;3.35;;;22.80;99.90;;;;;;4878875;29;20513;-68
2022/08/12 07:45:19;;;;;;;5.43;3.25;;;22.90;99.90;;;;;;4879037;29;20057;-69
2022/08/12 07:47:46;;;;;;;6.60;3.47;;;23.00;99.90;;;;;;4878515;29;20041;-69
2022/08/12 07:50:14;;;;;;;4.25;3.72;;;23.10;99.90;;;;;;4876594;29;20055;-69
2022/08/12 07:52:43;;;;;;;4.05;3.60;;;23.20;99.90;;;;;;4878662;29;20045;-68
2022/08/12 07:55:10;;;;;;;6.50;3.60;;;23.40;99.90;;;;;;4879210;29;20045;-68
2022/08/12 07:57:48;;;;;;;7.57;3.78;;;23.50;99.90;;;;;;4878767;29;20052;-68
2022/08/12 08:00:14;;;;;;;6.18;2.97;;;23.60;99.90;;;;;;4879137;29;20056;-69
2022/08/12 08:02:40;;;;;;;4.82;3.15;;;23.70;99.90;;;;;;4862251;29;20459;-69
2022/08/12 08:05:06;;;;;;;5.20;3.75;;;23.80;99.90;;;;;;4878926;29;20108;-68
2022/08/12 08:07:31;;;;;;;5.30;3.10;;;24.00;99.90;;;;;;4892707;29;20508;-68
2022/08/12 08:09:59;;;;;;;4.18;3.00;;;24.20;99.90;;;;;;4879494;29;20119;-68
2022/08/12 08:15:10;;;;;;;4.25;3.10;;;24.50;99.90;;;;;;4878754;29;20056;-68
2022/08/12 08:17:37;;;;;;;4.60;3.13;;;24.70;99.90;;;;;;4881479;29;20398;-68
2022/08/12 08:20:08;;;;;;;5.93;2.78;;;24.80;99.90;;;;;;4881784;29;20465;-69
2022/08/12 08:22:37;;;;;;;4.10;2.92;;;24.90;99.90;;;;;;4881994;29;20049;-68
2022/08/12 08:25:06;;;;;;;5.95;3.15;;;24.90;99.90;;;;;;4879743;29;20053;-69
2022/08/12 08:27:45;;;;;;;5.30;3.20;;;25.10;98.40;;;;;;4882304;29;20056;-68
2022/08/12 08:30:13;;;;;;;7.20;2.83;;;25.10;96.30;;;;;;4881955;29;20383;-68
2022/08/12 08:32:39;;;;;;;4.65;2.53;;;25.30;96.40;;;;;;4882425;29;20048;-69
2022/08/12 08:35:14;;;;;;;3.40;3.08;;;25.40;96.20;;;;;;4896735;29;20104;-68
2022/08/12 08:37:45;;;;;;;4.35;3.30;;;25.60;93.90;;;;;;4880417;29;20045;-68
2022/08/12 08:43:25;;;;;;;2.85;2.50;;;25.80;75.50;;;;;;4863641;29;20053;-68
2022/08/12 08:45:53;;;;;;;3.15;2.85;;;26.00;87.70;;;;;;4862896;29;20049;-68
2022/08/12 08:48:20;;;;;;;4.03;2.90;;;26.10;86.20;;;;;;4863625;29;20436;-69
2022/08/12 08:50:47;;;;;;;2.67;2.40;;;26.20;86.30;;;;;;4862636;29;20391;-69
2022/08/12 08:53:12;;;;;;;2.83;2.60;;;26.30;89.40;;;;;;4863495;29;20057;-69
2022/08/12 08:55:39;;;;;;;5.13;2.78;;;26.40;90.10;;;;;;4867173;29;20050;-68
2022/08/12 08:58:05;;;;;;;4.07;2.97;;;26.40;88.80;;;;;;4880638;29;20115;-68
2022/08/12 09:00:31;;;;;;;5.10;3.17;;;26.40;83.20;;;;;;4865148;29;20073;-69
2022/08/12 09:02:56;;;;;;;6.55;2.75;;;26.60;79.10;;;;;;4864579;29;20044;-69
2022/08/12 09:05:22;;;;;;;3.33;2.80;;;26.70;76.30;;;;;;4881824;29;20053;-69
2022/08/12 09:07:49;;;;;;;3.17;2.88;;;26.90;72.80;;;;;;4864256;29;20052;-68
2022/08/12 09:10:18;;;;;;;3.85;2.70;;;26.90;71.60;;;;;;4881825;29;20442;-68
2022/08/12 09:15:30;;;;;;;4.38;2.47;;;27.00;68.80;;;;;;4881450;29;20053;-69
2022/08/12 09:17:57;;;;;;;5.47;2.40;;;27.20;68.60;;;;;;4864977;29;20129;-68
2022/08/12 09:20:28;;;;;;;3.50;2.72;;;27.40;67.40;;;;;;4861393;29;20056;-69
2022/08/12 09:22:55;;;;;;;4.15;3.00;;;27.50;65.70;;;;;;4862194;29;20487;-68
2022/08/12 09:25:25;;;;;;;4.55;2.92;;;27.60;65.60;;;;;;4861167;29;20495;-69
2022/08/12 09:27:53;;;;;;;4.75;2.70;;;27.60;65.70;;;;;;4860908;29;20053;-69
2022/08/12 09:30:20;;;;;;;3.60;2.80;;;27.80;66.00;;;;;;4861260;29;20121;-69
2022/08/12 09:32:50;;;;;;;3.25;2.63;;;27.90;64.50;;;;;;4862702;29;20049;-68
2022/08/12 09:35:22;;;;;;;3.55;2.47;;;28.00;62.90;;;;;;4861070;29;20491;-69
2022/08/12 09:37:49;;;;;;;5.03;2.78;;;28.00;62.80;;;;;;4860660;29;20504;-69
2022/08/12 09:40:17;;;;;;;4.70;2.72;;;28.10;62.30;;;;;;4862270;29;20101;-69
2022/08/12 09:45:30;;;;;;;3.15;2.38;;;28.30;60.50;;;;;;4862539;29;20466;-68
2022/08/12 09:47:58;;;;;;;5.72;2.95;;;28.40;60.30;;;;;;4861162;29;20113;-69
2022/08/12 09:50:24;;;;;;;5.07;2.70;;;28.40;59.60;;;;;;4872545;29;20080;-69
2022/08/12 09:53:14;;;;;;;2.97;2.65;;;28.50;58.70;;;;;;4860115;29;20490;-69
2022/08/12 09:56:16;;;;;;;4.53;2.22;;;28.60;56.40;;;;;;4862358;29;20076;-69
2022/08/12 09:58:45;;;;;;;2.58;2.38;;;28.60;56.70;;;;;;4860171;29;20057;-69
2022/08/12 10:01:11;;;;;;;4.63;2.42;;;28.70;56.70;;;;;;4861979;29;20065;-69
2022/08/12 10:03:37;;;;;;;3.15;2.60;;;28.80;56.30;;;;;;4861785;29;20053;-69
2022/08/12 10:06:05;;;;;;;3.13;2.70;;;28.90;56.20;;;;;;4867345;29;20057;-69
2022/08/12 10:08:32;;;;;;;3.92;2.70;;;29.00;55.30;;;;;;4860104;29;20110;-69
2022/08/12 10:13:47;;;;;;;3.95;2.63;;;29.30;54.80;;;;;;4861243;29;20042;-70
2022/08/12 10:16:22;;;;;;;4.85;2.67;;;29.40;53.50;;;;;;4856918;29;20042;-69
2022/08/12 10:18:52;;;;;;;2.90;2.70;;;29.40;50.70;;;;;;4860870;29;20046;-69
2022/08/12 10:21:21;;;;;;;4.80;2.57;;;29.40;51.90;;;;;;4861565;29;20163;-70
2022/08/12 10:23:48;;;;;;;4.07;2.70;;;29.40;51.90;;;;;;4860178;29;20137;-70
2022/08/12 10:31:45;;;;;;;3.45;2.22;;;29.40;50.60;;;;;;4847981;29;20086;-69
2022/08/12 10:34:12;;;;;;;3.55;2.50;;;29.40;49.60;;;;;;4842842;29;20435;-68
2022/08/12 10:36:42;;;;;;;3.28;2.42;;;29.30;49.70;;;;;;4855104;29;20050;-68
2022/08/12 10:39:13;;;;;;;4.90;2.38;;;29.30;49.90;;;;;;4854863;29;20042;-68
2022/08/12 10:44:28;;;;;;;5.07;2.47;;;29.40;49.90;;;;;;4851422;29;20144;-68
2022/08/12 10:46:55;;;;;;;3.22;2.20;;;29.50;50.00;;;;;;4861094;29;20125;-68
2022/08/12 10:49:26;;;;;;;3.28;2.20;;;29.50;49.10;;;;;;4861625;29;20053;-68
2022/08/12 10:51:53;;;;;;;3.42;2.22;;;29.60;48.50;;;;;;4860670;29;20055;-67
2022/08/12 10:54:21;;;;;;;6.13;2.50;;;29.60;48.90;;;;;;4858473;29;20049;-69
2022/08/12 10:56:48;;;;;;;2.20;2.10;;;29.60;48.80;;;;;;4852215;29;20442;-69
2022/08/12 10:59:14;;;;;;;3.67;2.30;;;29.60;48.60;;;;;;4841799;29;20046;-69
2022/08/12 11:01:41;;;;;;;6.13;2.50;;;29.50;48.90;;;;;;4841394;29;20053;-68
2022/08/12 11:04:12;;;;;;;6.05;2.50;;;29.70;48.80;;;;;;4845402;29;20392;-67
2022/08/12 11:06:46;;;;;;;2.65;1.90;;;29.90;48.10;;;;;;4842169;29;20042;-69
2022/08/12 11:09:20;;;;;;;2.47;2.20;;;30.00;47.80;;;;;;4842711;29;20049;-69
2022/08/12 11:11:47;;;;;;;2.65;2.08;;;30.00;47.40;;;;;;4842300;29;20046;-69
2022/08/12 11:14:30;;;;;;;3.03;2.05;;;30.00;47.50;;;;;;4841389;29;20103;-69
2022/08/12 11:16:56;;;;;;;5.15;2.85;;;30.20;48.00;;;;;;4855534;29;20053;-68
2022/08/12 11:19:26;;;;;;;3.67;2.33;;;30.20;47.80;;;;;;4854015;29;20106;-69
2022/08/12 11:21:54;;;;;;;5.13;2.17;;;30.40;47.20;;;;;;4825639;29;20073;-68
2022/08/12 11:24:20;;;;;;;2.40;2.17;;;30.50;46.80;;;;;;4845202;29;20114;-69
2022/08/12 11:26:48;;;;;;;3.00;2.35;;;30.60;46.90;;;;;;4860235;29;20100;-69
2022/08/12 11:29:14;;;;;;;3.03;2.10;;;30.60;46.40;;;;;;4860485;29;20487;-69
2022/08/12 11:31:40;;;;;;;5.00;2.13;;;30.60;47.10;;;;;;4859883;29;20094;-69
2022/08/12 11:34:06;;;;;;;3.35;2.00;;;30.60;46.50;;;;;;4860636;29;20057;-69
2022/08/12 11:36:31;;;;;;;4.80;2.15;;;30.70;46.10;;;;;;4858251;29;20069;-70
2022/08/12 11:38:58;;;;;;;2.55;2.00;;;30.70;46.20;;;;;;4861284;29;20101;-69
2022/08/12 11:41:23;;;;;;;4.57;1.88;;;30.80;46.30;;;;;;4893720;29;20057;-69
2022/08/12 11:43:49;;;;;;;6.05;2.20;;;30.90;45.60;;;;;;4858815;29;20483;-69
2022/08/12 11:46:17;;;;;;;2.50;2.00;;;30.90;45.10;;;;;;4859017;29;20053;-69
2022/08/12 11:48:43;;;;;;;3.60;2.25;;;31.00;45.10;;;;;;4858923;29;20476;-70
2022/08/12 11:51:09;;;;;;;3.00;2.20;;;31.00;45.20;;;;;;4861695;29;20045;-69
2022/08/12 11:53:35;;;;;;;6.45;2.65;;;31.00;45.40;;;;;;4866106;29;20117;-69
2022/08/12 11:56:02;;;;;;;3.78;2.35;;;30.90;44.70;;;;;;4882755;29;20500;-69
2022/08/12 11:58:28;;;;;;;4.82;2.22;;;30.80;44.50;;;;;;4846826;29;20081;-69
2022/08/12 12:00:54;;;;;;;6.35;2.70;;;30.60;44.10;;;;;;4859857;29;20161;-69
2022/08/12 12:03:20;;;;;;;2.55;2.30;;;30.60;44.60;;;;;;4856094;29;20056;-69
2022/08/12 12:05:47;;;;;;;3.88;2.22;;;30.70;45.00;;;;;;4860770;29;20046;-69
2022/08/12 12:08:26;;;;;;;7.00;3.03;;;30.80;45.30;;;;;;4862938;29;20041;-68
2022/08/12 12:11:24;;;;;;;2.75;2.35;;;30.70;45.30;;;;;;4861248;29;20117;-68
2022/08/12 12:13:50;;;;;;;3.00;2.35;;;30.90;44.60;;;;;;4853139;29;20099;-69
2022/08/12 12:16:16;;;;;;;3.38;2.20;;;31.00;45.20;;;;;;4863894;29;20503;-69
2022/08/12 12:18:41;;;;;;;6.07;2.38;;;30.80;44.60;;;;;;4862653;29;20399;-69
2022/08/12 12:21:07;;;;;;;2.95;2.47;;;31.00;44.80;;;;;;4863408;29;20049;-68
2022/08/12 12:23:34;;;;;;;4.18;2.10;;;31.10;44.90;;;;;;4862444;29;20053;-68
2022/08/12 12:26:04;;;;;;;5.00;2.20;;;31.10;44.80;;;;;;4864149;29;20050;-68
2022/08/12 12:28:30;;;;;;;2.90;2.20;;;31.20;44.10;;;;;;4861745;29;20037;-67
2022/08/12 12:30:56;;;;;;;2.92;2.22;;;31.10;44.20;;;;;;4862437;29;20053;-66
2022/08/12 12:33:22;;;;;;;3.80;2.28;;;31.10;44.30;;;;;;4862483;29;20053;-66
2022/08/12 12:35:47;;;;;;;3.67;2.17;;;31.00;44.00;;;;;;4861989;29;20056;-66
2022/08/12 12:38:14;;;;;;;6.90;2.22;;;31.10;44.30;;;;;;4863644;29;20096;-65
2022/08/12 12:40:42;;;;;;;5.97;2.58;;;31.10;43.80;;;;;;4863721;29;20056;-65
2022/08/12 12:43:08;;;;;;;4.00;2.45;;;31.10;43.90;;;;;;4862807;29;20463;-67
2022/08/12 12:45:35;;;;;;;7.63;2.55;;;31.10;43.90;;;;;;4873018;29;20037;-67
2022/08/12 12:48:00;;;;;;;3.45;2.33;;;31.00;43.50;;;;;;4870512;29;20050;-66
2022/08/12 12:50:31;;;;;;;6.18;2.83;;;30.80;43.80;;;;;;4863495;29;20497;-67
2022/08/12 12:52:57;;;;;;;3.65;2.60;;;31.10;43.90;;;;;;4873587;29;20085;-67
2022/08/12 12:55:23;;;;;;;6.65;2.63;;;31.10;44.10;;;;;;4873777;29;20085;-67
2022/08/12 12:57:49;;;;;;;3.47;2.22;;;31.10;44.20;;;;;;4881676;29;20524;-67
2022/08/12 13:00:17;;;;;;;3.40;2.20;;;31.20;44.10;;;;;;4882138;29;20389;-66
2022/08/12 13:02:54;;;;;;;3.38;2.50;;;31.20;44.40;;;;;;4859313;29;20491;-67
2022/08/12 13:05:24;;;;;;;4.47;2.22;;;31.30;44.20;;;;;;4843492;29;20042;-68
2022/08/12 13:07:49;;;;;;;5.57;1.98;;;31.30;44.30;;;;;;4844360;29;20058;-68
2022/08/12 13:10:15;;;;;;;3.40;2.05;;;31.40;43.70;;;;;;4844920;29;20053;-68
2022/08/12 13:12:41;;;;;;;5.35;2.20;;;31.40;43.50;;;;;;4844566;29;20048;-67
2022/08/12 13:15:14;;;;;;;5.00;2.20;;;31.30;43.50;;;;;;4844713;29;20180;-66
2022/08/12 13:17:46;;;;;;;3.15;2.20;;;31.30;43.50;;;;;;4875950;29;20511;-68
2022/08/12 13:20:13;;;;;;;3.40;2.50;;;31.30;43.20;;;;;;4844616;29;20356;-67
2022/08/12 13:22:39;;;;;;;2.53;2.40;;;31.10;42.70;;;;;;4858385;29;20081;-67
2022/08/12 13:25:05;;;;;;;4.35;2.13;;;31.30;43.20;;;;;;4847867;29;20069;-67
2022/08/12 13:27:40;;;;;;;2.30;2.10;;;31.30;43.80;;;;;;4844284;29;20124;-68
2022/08/12 13:30:09;;;;;;;3.95;2.13;;;31.40;42.90;;;;;;4852939;29;20487;-67
2022/08/12 13:32:36;;;;;;;6.60;2.28;;;31.50;42.70;;;;;;4849140;29;20050;-68
2022/08/12 13:35:05;;;;;;;6.07;2.35;;;31.40;42.20;;;;;;4853747;29;20103;-68
2022/08/12 13:37:31;;;;;;;2.30;2.20;;;31.40;42.80;;;;;;4838558;29;20121;-67
2022/08/12 13:39:57;;;;;;;4.47;2.53;;;31.40;43.00;;;;;;4838844;29;20045;-67
2022/08/12 13:42:22;;;;;;;2.67;2.40;;;31.40;43.40;;;;;;4843070;29;20563;-67
2022/08/12 13:44:51;;;;;;;3.03;2.50;;;31.40;43.70;;;;;;4843692;29;20515;-67
2022/08/12 13:47:23;;;;;;;7.65;2.45;;;31.30;43.70;;;;;;4855045;29;20049;-67
2022/08/12 13:49:50;;;;;;;2.72;2.10;;;31.40;43.50;;;;;;4845782;29;20395;-67
2022/08/12 13:52:19;;;;;;;7.82;2.67;;;31.40;43.00;;;;;;4843477;29;20044;-67
2022/08/12 13:54:46;;;;;;;2.70;2.47;;;31.40;43.20;;;;;;4842463;29;20068;-68
2022/08/12 13:57:14;;;;;;;3.72;2.83;;;31.30;43.80;;;;;;4842405;29;20155;-67
2022/08/12 13:59:41;;;;;;;4.65;2.70;;;31.50;43.70;;;;;;4842849;29;20103;-67
2022/08/12 14:02:10;;;;;;;3.63;2.38;;;31.60;43.10;;;;;;4843392;29;20049;-67
2022/08/12 14:04:38;;;;;;;2.63;2.42;;;31.40;42.70;;;;;;4842540;29;20121;-67
2022/08/12 14:07:04;;;;;;;3.95;2.55;;;31.30;43.00;;;;;;4840741;29;20049;-67
2022/08/12 14:10:34;;;;;;;3.25;2.67;;;31.30;42.70;;;;;;4851955;29;20410;-67
2022/08/12 14:12:17;;;;;;;4.63;2.53;;;31.30;42.90;;;;;;4850018;29;20102;-67
2022/08/12 14:14:49;;;;;;;3.67;2.60;;;31.30;42.60;;;;;;4850812;29;20054;-68
2022/08/12 14:17:15;;;;;;;;;;;31.40;42.20;;;;;;4844218;29;20519;-68
2022/08/12 14:20:12;;;;;;;3.50;2.47;;;31.20;42.00;;;;;;4852359;29;19924;-68
2022/08/12 14:22:26;;;;;;;5.03;2.72;;;31.20;42.00;;;;;;4846956;29;20045;-67
2022/08/12 14:24:52;;;;;;;4.53;2.70;;;31.20;42.30;;;;;;4854817;29;20125;-66
2022/08/12 14:27:18;;;;;;;3.72;2.88;;;31.20;41.90;;;;;;4860111;29;20405;-67
2022/08/12 14:29:45;;;;;;;3.90;2.78;;;31.20;41.80;;;;;;4865206;29;20046;-67
2022/08/12 14:32:11;;;;;;;6.45;2.78;;;31.30;42.10;;;;;;4859953;29;20080;-67
2022/08/12 14:34:36;;;;;;;4.82;2.65;;;31.20;42.10;;;;;;4858661;29;20093;-67
2022/08/12 14:37:05;;;;;;;3.45;2.58;;;31.10;42.30;;;;;;4862690;29;20061;-67
2022/08/12 14:39:31;;;;;;;4.05;2.60;;;31.10;42.00;;;;;;4853578;29;20126;-67
2022/08/12 14:41:57;;;;;;;4.18;3.05;;;31.10;42.30;;;;;;4869714;29;20057;-66
2022/08/12 14:44:23;;;;;;;4.70;2.70;;;31.10;42.10;;;;;;4859912;29;20042;-66
2022/08/12 14:46:56;;;;;;;3.25;2.50;;;31.10;41.60;;;;;;4859846;29;20086;-67
2022/08/12 14:49:22;;;;;;;4.65;2.75;;;31.00;41.90;;;;;;4861215;29;20092;-66
2022/08/12 14:51:47;;;;;;;3.45;2.53;;;31.10;42.10;;;;;;4855313;29;20133;-67
2022/08/12 14:54:13;;;;;;;2.75;2.55;;;31.00;41.70;;;;;;4852074;29;20064;-67
2022/08/12 14:56:40;;;;;;;4.72;2.70;;;31.00;41.60;;;;;;4860335;29;20041;-66
2022/08/12 15:01:51;;;;;;;2.65;2.45;;;31.00;41.90;;;;;;4859911;29;20089;-67